Observation data for Gail on 09/12/2017      Previous  Date  Next       Current Mesonet Observations  Soil Data  Daily Summary Page  Observations in Plain Language
KGGS 120500Z 07001KT 18/09 A301 RMK A01 T01800087  RH  056%=      5-min Rain = 0
KGGS 120505Z 07001KT 18/09 A301 RMK A01 T01780087  RH  057%=      5-min Rain = 0
KGGS 120510Z 09001KT 18/09 A301 RMK A01 T01770087  RH  057%=      5-min Rain = 0
KGGS 120515Z 10001KT 18/09 A301 RMK A01 T01790086  RH  056%=      5-min Rain = 0
KGGS 120520Z 11001KT 18/09 A3009 RMK A01 T01810085  RH  055%=      5-min Rain = 0
KGGS 120525Z 10002KT 19/08 A3009 RMK A01 T01860084  RH  053%=      5-min Rain = 0
KGGS 120530Z 10002KT 18/08 A3009 RMK A01 T01780084  RH  056%=      5-min Rain = 0
KGGS 120535Z 08002KT 17/09 A3009 RMK A01 T01720085  RH  058%=      5-min Rain = 0
KGGS 120540Z 06001KT 17/09 A3009 RMK A01 T01710086  RH  059%=      5-min Rain = 0
KGGS 120545Z 04001KT 17/09 A3009 RMK A01 T01730085  RH  058%=      5-min Rain = 0
KGGS 120550Z 04002KT 18/09 A3009 RMK A01 T01750086  RH  057%=      5-min Rain = 0
KGGS 120555Z 02001KT 17/09 A3009 RMK A01 T01730086  RH  058%=      5-min Rain = 0
KGGS 120600Z 03001KT 17/09 A3009 RMK A01 T01710085  RH  059%=      5-min Rain = 0
KGGS 120605Z 03001KT 17/09 A3008 RMK A01 T01730086  RH  058%=      5-min Rain = 0
KGGS 120610Z 02001KT 18/09 A3008 RMK A01 T01770086  RH  057%=      5-min Rain = 0
KGGS 120615Z 35002KT 18/09 A3008 RMK A01 T01770086  RH  057%=      5-min Rain = 0
KGGS 120620Z 34003KT 18/09 A3008 RMK A01 T01750086  RH  058%=      5-min Rain = 0
KGGS 120625Z 33002KT 17/09 A3008 RMK A01 T01730086  RH  058%=      5-min Rain = 0
KGGS 120630Z 33002KT 17/09 A3008 RMK A01 T01670085  RH  060%=      5-min Rain = 0
KGGS 120635Z 33002KT 16/09 A3008 RMK A01 T01640086  RH  061%=      5-min Rain = 0
KGGS 120640Z 33003KT 17/09 A3008 RMK A01 T01650086  RH  062%=      5-min Rain = 0
KGGS 120645Z 33002KT 17/09 A3008 RMK A01 T01660087  RH  061%=      5-min Rain = 0
KGGS 120650Z 34002KT 17/09 A3008 RMK A01 T01700085  RH  059%=      5-min Rain = 0
KGGS 120655Z 34002KT 17/09 A3007 RMK A01 T01730085  RH  058%=      5-min Rain = 0
KGGS 120700Z 33003KT 17/09 A3007 RMK A01 T01720085  RH  058%=      5-min Rain = 0
KGGS 120705Z 33002KT 17/09 A3007 RMK A01 T01730085  RH  058%=      5-min Rain = 0
KGGS 120710Z 35002KT 17/09 A3007 RMK A01 T01740085  RH  058%=      5-min Rain = 0
KGGS 120715Z 01001KT 18/09 A3007 RMK A01 T01760085  RH  057%=      5-min Rain = 0
KGGS 120720Z 01001KT 18/09 A3007 RMK A01 T01760085  RH  056%=      5-min Rain = 0
KGGS 120725Z 02001KT 18/09 A3007 RMK A01 T01750085  RH  057%=      5-min Rain = 0
KGGS 120730Z 02000KT 17/09 A3007 RMK A01 T01730085  RH  058%=      5-min Rain = 0
KGGS 120735Z 01000KT 17/09 A3007 RMK A01 T01710085  RH  059%=      5-min Rain = 0
KGGS 120740Z 36001KT 17/09 A3007 RMK A01 T01700085  RH  059%=      5-min Rain = 0
KGGS 120745Z 00000KT 17/09 A3007 RMK A01 T01720085  RH  058%=      5-min Rain = 0
KGGS 120750Z 00000KT 17/09 A3007 RMK A01 T01720085  RH  058%=      5-min Rain = 0
KGGS 120755Z 03000KT 17/08 A3007 RMK A01 T01700084  RH  059%=      5-min Rain = 0
KGGS 120800Z 36001KT 17/08 A3006 RMK A01 T01700084  RH  059%=      5-min Rain = 0
KGGS 120805Z 01001KT 17/09 A3006 RMK A01 T01680085  RH  060%=      5-min Rain = 0
KGGS 120810Z 02001KT 16/08 A3006 RMK A01 T01640084  RH  061%=      5-min Rain = 0
KGGS 120815Z 34002KT 17/09 A3006 RMK A01 T01650085  RH  061%=      5-min Rain = 0
KGGS 120820Z 32003KT 17/09 A3006 RMK A01 T01650085  RH  061%=      5-min Rain = 0
KGGS 120825Z 32003KT 16/09 A3006 RMK A01 T01620085  RH  062%=      5-min Rain = 0
KGGS 120830Z 32003KT 16/09 A3006 RMK A01 T01600085  RH  063%=      5-min Rain = 0
KGGS 120835Z 32003KT 16/09 A3006 RMK A01 T01590085  RH  063%=      5-min Rain = 0
KGGS 120840Z 32003KT 16/09 A3006 RMK A01 T01620085  RH  062%=      5-min Rain = 0
KGGS 120845Z 32004KT 16/09 A3005 RMK A01 T01630085  RH  062%=      5-min Rain = 0
KGGS 120850Z 32004KT 16/09 A3005 RMK A01 T01610085  RH  062%=      5-min Rain = 0
KGGS 120855Z 31004KT 16/09 A3005 RMK A01 T01600085  RH  063%=      5-min Rain = 0
KGGS 120900Z 31004KT 16/09 A3005 RMK A01 T01590085  RH  063%=      5-min Rain = 0
KGGS 120905Z 31003KT 16/09 A3005 RMK A01 T01600085  RH  063%=      5-min Rain = 0
KGGS 120910Z 32003KT 16/08 A3005 RMK A01 T01580084  RH  063%=      5-min Rain = 0
KGGS 120915Z 32003KT 16/08 A3005 RMK A01 T01550084  RH  065%=      5-min Rain = 0
KGGS 120920Z 32002KT 15/08 A3005 RMK A01 T01530084  RH  065%=      5-min Rain = 0
KGGS 120925Z 32002KT 16/09 A3005 RMK A01 T01560085  RH  064%=      5-min Rain = 0
KGGS 120930Z 32003KT 16/09 A3005 RMK A01 T01560085  RH  064%=      5-min Rain = 0
KGGS 120935Z 32002KT 16/09 A3005 RMK A01 T01560085  RH  064%=      5-min Rain = 0
KGGS 120940Z 32003KT 16/09 A3005 RMK A01 T01570085  RH  064%=      5-min Rain = 0
KGGS 120945Z 31003KT 16/09 A3005 RMK A01 T01550085  RH  065%=      5-min Rain = 0
KGGS 120950Z 31004KT 16/09 A3005 RMK A01 T01550085  RH  065%=      5-min Rain = 0
KGGS 120955Z 31004KT 16/09 A3004 RMK A01 T01560085  RH  064%=      5-min Rain = 0
KGGS 121000Z 31005KT 16/09 A3005 RMK A01 T01560085  RH  064%=      5-min Rain = 0
KGGS 121005Z 31005KT 16/09 A3005 RMK A01 T01550085  RH  065%=      5-min Rain = 0
KGGS 121010Z 31005KT 16/09 A3004 RMK A01 T01550085  RH  065%=      5-min Rain = 0
KGGS 121015Z 32004KT 16/08 A3005 RMK A01 T01570084  RH  064%=      5-min Rain = 0
KGGS 121020Z 32003KT 16/08 A3005 RMK A01 T01590084  RH  063%=      5-min Rain = 0
KGGS 121025Z 32003KT 16/08 A3005 RMK A01 T01580084  RH  063%=      5-min Rain = 0
KGGS 121030Z 32002KT 15/08 A3005 RMK A01 T01540083  RH  065%=      5-min Rain = 0
KGGS 121035Z 32002KT 15/08 A3005 RMK A01 T01510083  RH  066%=      5-min Rain = 0
KGGS 121040Z 32003KT 15/08 A3005 RMK A01 T01540083  RH  064%=      5-min Rain = 0
KGGS 121045Z 32003KT 16/08 A3004 RMK A01 T01560083  RH  064%=      5-min Rain = 0
KGGS 121050Z 32003KT 16/08 A3005 RMK A01 T01550083  RH  064%=      5-min Rain = 0
KGGS 121055Z 32003KT 15/08 A3005 RMK A01 T01530083  RH  065%=      5-min Rain = 0
KGGS 121100Z 32004KT 15/08 A3005 RMK A01 T01540084  RH  065%=      5-min Rain = 0
KGGS 121105Z 31005KT 15/08 A3005 RMK A01 T01540084  RH  065%=      5-min Rain = 0
KGGS 121110Z 32005KT 15/08 A3005 RMK A01 T01540084  RH  065%=      5-min Rain = 0
KGGS 121115Z 32004KT 15/08 A3005 RMK A01 T01540084  RH  065%=      5-min Rain = 0
KGGS 121120Z 32004KT 15/08 A3005 RMK A01 T01530084  RH  065%=      5-min Rain = 0
KGGS 121125Z 31004KT 15/08 A3005 RMK A01 T01530084  RH  065%=      5-min Rain = 0
KGGS 121130Z 31004KT 15/08 A3005 RMK A01 T01530084  RH  065%=      5-min Rain = 0
KGGS 121135Z 31004KT 15/08 A3005 RMK A01 T01530084  RH  065%=      5-min Rain = 0
KGGS 121140Z 31004KT 15/08 A3005 RMK A01 T01540084  RH  065%=      5-min Rain = 0
KGGS 121145Z 32003KT 16/08 A3005 RMK A01 T01550083  RH  064%=      5-min Rain = 0
KGGS 121150Z 31004KT 16/08 A3005 RMK A01 T01570083  RH  063%=      5-min Rain = 0
KGGS 121155Z 31003KT 16/08 A3005 RMK A01 T01550083  RH  064%=      5-min Rain = 0
KGGS 121200Z 31003KT 16/08 A3005 RMK A01 T01560083  RH  064%=      5-min Rain = 0
KGGS 121205Z 31003KT 16/08 A3005 RMK A01 T01570083  RH  063%=      5-min Rain = 0
KGGS 121210Z 31003KT 16/08 A3006 RMK A01 T01570083  RH  063%=      5-min Rain = 0
KGGS 121215Z 31003KT 16/08 A3006 RMK A01 T01580082  RH  063%=      5-min Rain = 0
KGGS 121220Z 31002KT 16/08 A3005 RMK A01 T01580082  RH  063%=      5-min Rain = 0
KGGS 121225Z 32002KT 16/08 A3006 RMK A01 T01580082  RH  062%=      5-min Rain = 0
KGGS 121230Z 32003KT 16/08 A3006 RMK A01 T01570082  RH  063%=      5-min Rain = 0
KGGS 121235Z 31003KT 16/08 A3006 RMK A01 T01550083  RH  064%=      5-min Rain = 0
KGGS 121240Z 30003KT 15/08 A3006 RMK A01 T01530083  RH  065%=      5-min Rain = 0
KGGS 121245Z 30004KT 15/08 A3006 RMK A01 T01520084  RH  066%=      5-min Rain = 0
KGGS 121250Z 29004KT 15/09 A3006 RMK A01 T01520086  RH  067%=      5-min Rain = 0
KGGS 121255Z 30004KT 15/09 A3006 RMK A01 T01530087  RH  067%=      5-min Rain = 0
KGGS 121300Z 31003KT 15/09 A3006 RMK A01 T01540089  RH  067%=      5-min Rain = 0
KGGS 121305Z 31003KT 16/09 A3006 RMK A01 T01560090  RH  067%=      5-min Rain = 0
KGGS 121310Z 31003KT 16/09 A3006 RMK A01 T01600093  RH  066%=      5-min Rain = 0
KGGS 121315Z 31003KT 17/09 A3006 RMK A01 T01650094  RH  065%=      5-min Rain = 0
KGGS 121320Z 30003KT 17/09 A3006 RMK A01 T01690094  RH  063%=      5-min Rain = 0
KGGS 121325Z 31002KT 17/09 A3007 RMK A01 T01730094  RH  062%=      5-min Rain = 0
KGGS 121330Z 31002KT 18/09 A3007 RMK A01 T01760094  RH  061%=      5-min Rain = 0
KGGS 121335Z 32002KT 18/09 A3007 RMK A01 T01780093  RH  059%=      5-min Rain = 0
KGGS 121340Z 32001KT 18/09 A3006 RMK A01 T01820094  RH  058%=      5-min Rain = 0
KGGS 121345Z 31002KT 19/09 A3007 RMK A01 T01860094  RH  057%=      5-min Rain = 0
KGGS 121350Z 30002KT 19/09 A3007 RMK A01 T01890094  RH  056%=      5-min Rain = 0
KGGS 121355Z 30001KT 20/09 A3007 RMK A01 T01950093  RH  054%=      5-min Rain = 0
KGGS 121400Z 30000KT 20/09 A3007 RMK A01 T02000093  RH  052%=      5-min Rain = 0
KGGS 121405Z 00000KT 21/09 A3007 RMK A01 T02070092  RH  049%=      5-min Rain = 0
KGGS 121410Z 06000KT 21/09 A3007 RMK A01 T02140092  RH  047%=      5-min Rain = 0
KGGS 121415Z 19001KT 22/09 A3007 RMK A01 T02180093  RH  046%=      5-min Rain = 0
KGGS 121420Z 24001KT 22/09 A3007 RMK A01 T02200094  RH  046%=      5-min Rain = 0
KGGS 121425Z 27000KT 23/10 A3007 RMK A01 T02250095  RH  045%=      5-min Rain = 0
KGGS 121430Z 20002KT 23/09 A3007 RMK A01 T02330093  RH  042%=      5-min Rain = 0
KGGS 121435Z 19002KT 24/09 A3006 RMK A01 T02350093  RH  042%=      5-min Rain = 0
KGGS 121440Z 21002KT 24/09 A3006 RMK A01 T02390094  RH  041%=      5-min Rain = 0
KGGS 121445Z 23003KT 24/09 A3006 RMK A01 T02380092  RH  041%=      5-min Rain = 0
KGGS 121450Z 22003KT 24/09 A3007 RMK A01 T02400094  RH  041%=      5-min Rain = 0
KGGS 121455Z 22002KT 24/09 A3007 RMK A01 T02430093  RH  040%=      5-min Rain = 0
KGGS 121500Z 24003KT 25/09 A3006 RMK A01 T02490094  RH  039%=      5-min Rain = 0
KGGS 121505Z 20003KT 25/09 A3006 RMK A01 T02510094  RH  038%=      5-min Rain = 0
KGGS 121510Z 20003KT 25/09 A3006 RMK A01 T02520093  RH  038%=      5-min Rain = 0
KGGS 121515Z 20005KT 26/09 A3006 RMK A01 T02560093  RH  037%=      5-min Rain = 0
KGGS 121520Z 21005KT 26/09 A3006 RMK A01 T02560092  RH  036%=      5-min Rain = 0
KGGS 121525Z 21004KT 26/09 A3006 RMK A01 T02560091  RH  036%=      5-min Rain = 0
KGGS 121530Z 21006KT 26/09 A3006 RMK A01 T02570091  RH  036%=      5-min Rain = 0
KGGS 121535Z 22005KT 26/09 A3006 RMK A01 T02580090  RH  036%=      5-min Rain = 0
KGGS 121540Z 20005KT 26/09 A3006 RMK A01 T02620093  RH  036%=      5-min Rain = 0
KGGS 121545Z 21005KT 26/09 A3006 RMK A01 T02640093  RH  035%=      5-min Rain = 0
KGGS 121550Z 20005KT 27/09 A3006 RMK A01 T02660094  RH  035%=      5-min Rain = 0
KGGS 121555Z 22005KT 27/09 A3006 RMK A01 T02680094  RH  034%=      5-min Rain = 0
KGGS 121600Z 20004KT 27/09 A3006 RMK A01 T02720094  RH  034%=      5-min Rain = 0
KGGS 121605Z 18005KT 27/09 A3006 RMK A01 T02730094  RH  034%=      5-min Rain = 0
KGGS 121610Z 20005KT 27/10 A3005 RMK A01 T02740095  RH  033%=      5-min Rain = 0
KGGS 121615Z 20004KT 28/10 A3005 RMK A01 T02760095  RH  033%=      5-min Rain = 0
KGGS 121620Z 20002KT 28/10 A3005 RMK A01 T02800096  RH  033%=      5-min Rain = 0
KGGS 121625Z 22004KT 28/10 A3005 RMK A01 T02830096  RH  032%=      5-min Rain = 0
KGGS 121630Z 23005KT 28/09 A3005 RMK A01 T02810094  RH  032%=      5-min Rain = 0
KGGS 121635Z 21002KT 29/10 A3004 RMK A01 T02860095  RH  031%=      5-min Rain = 0
KGGS 121640Z 23004G9KT 29/10 A3004 RMK A01 T02900095  RH  031%=      5-min Rain = 0
KGGS 121645Z 26005KT 29/09 A3004 RMK A01 T02910094  RH  030%=      5-min Rain = 0
KGGS 121650Z 19003KT 29/09 A3004 RMK A01 T02920094  RH  030%=      5-min Rain = 0
KGGS 121655Z 23005KT 30/10 A3004 RMK A01 T02970096  RH  030%=      5-min Rain = 0
KGGS 121700Z 27003KT 30/09 A3004 RMK A01 T02960094  RH  029%=      5-min Rain = 0
KGGS 121705Z 22002KT 30/09 A3003 RMK A01 T02960093  RH  029%=      5-min Rain = 0
KGGS 121710Z 22004KT 30/10 A3003 RMK A01 T02990095  RH  029%=      5-min Rain = 0
KGGS 121715Z 27004KT 30/10 A3003 RMK A01 T02990095  RH  029%=      5-min Rain = 0
KGGS 121720Z 02003KT 30/09 A3003 RMK A01 T02990094  RH  029%=      5-min Rain = 0
KGGS 121725Z 28003G9KT 31/10 A3003 RMK A01 T03060097  RH  028%=      5-min Rain = 0
KGGS 121730Z 28006KT 31/10 A3003 RMK A01 T03110096  RH  027%=      5-min Rain = 0
KGGS 121735Z 33002KT 31/09 A3002 RMK A01 T03080094  RH  027%=      5-min Rain = 0
KGGS 121740Z 28003KT 31/09 A3002 RMK A01 T03080094  RH  027%=      5-min Rain = 0
KGGS 121745Z 32002G7KT 31/10 A3002 RMK A01 T03080095  RH  028%=      5-min Rain = 0
KGGS 121750Z 31004G11KT 31/10 A3001 RMK A01 T03110095  RH  027%=      5-min Rain = 0
KGGS 121755Z 30006KT 32/10 A3001 RMK A01 T03180096  RH  026%=      5-min Rain = 0
KGGS 121800Z 33003KT 32/10 A3001 RMK A01 T03150095  RH  026%=      5-min Rain = 0
KGGS 121805Z 32004KT 32/10 A3001 RMK A01 T03160096  RH  027%=      5-min Rain = 0
KGGS 121810Z 20002KT 31/10 A3001 RMK A01 T03130095  RH  027%=      5-min Rain = 0
KGGS 121815Z 29006G12KT 33/10 A30 RMK A01 T03260098  RH  025%=      5-min Rain = 0
KGGS 121820Z 32005KT 32/10 A30 RMK A01 T03230095  RH  025%=      5-min Rain = 0
KGGS 121825Z 32006KT 32/09 A30 RMK A01 T03200094  RH  026%=      5-min Rain = 0
KGGS 121830Z 34003KT 32/09 A2999 RMK A01 T03180092  RH  026%=      5-min Rain = 0
KGGS 121835Z 28008KT 33/10 A2999 RMK A01 T03260095  RH  025%=      5-min Rain = 0
KGGS 121840Z 27006KT 33/09 A2999 RMK A01 T03280094  RH  024%=      5-min Rain = 0
KGGS 121845Z 33005KT 33/09 A2999 RMK A01 T03280092  RH  024%=      5-min Rain = 0
KGGS 121850Z 24002G9KT 33/09 A2998 RMK A01 T03290092  RH  024%=      5-min Rain = 0
KGGS 121855Z 32003G8KT 33/09 A2998 RMK A01 T03300092  RH  024%=      5-min Rain = 0
KGGS 121900Z 31003G10KT 34/09 A2998 RMK A01 T03370092  RH  023%=      5-min Rain = 0
KGGS 121905Z 29005KT 34/09 A2997 RMK A01 T03350091  RH  023%=      5-min Rain = 0
KGGS 121910Z 28004KT 34/09 A2997 RMK A01 T03350092  RH  023%=      5-min Rain = 0
KGGS 121915Z 33006KT 34/09 A2997 RMK A01 T03400092  RH  023%=      5-min Rain = 0
KGGS 121920Z 31007G13KT 34/09 A2997 RMK A01 T03390091  RH  022%=      5-min Rain = 0
KGGS 121925Z 04002G7KT 33/09 A2996 RMK A01 T03330089  RH  023%=      5-min Rain = 0
KGGS 121930Z 30007G13KT 34/09 A2996 RMK A01 T03390091  RH  022%=      5-min Rain = 0
KGGS 121935Z 30007KT 34/09 A2996 RMK A01 T03370089  RH  023%=      5-min Rain = 0
KGGS 121940Z 26003G8KT 34/09 A2995 RMK A01 T03370089  RH  023%=      5-min Rain = 0
KGGS 121945Z 33004KT 34/09 A2995 RMK A01 T03410090  RH  022%=      5-min Rain = 0
KGGS 121950Z 30004KT 34/09 A2994 RMK A01 T03420090  RH  022%=      5-min Rain = 0
KGGS 121955Z 35008KT 35/09 A2994 RMK A01 T03450088  RH  021%=      5-min Rain = 0
KGGS 122000Z 00006KT 34/09 A2994 RMK A01 T03410085  RH  021%=      5-min Rain = 0
KGGS 122005Z 34005G10KT 34/09 A2994 RMK A01 T03420087  RH  022%=      5-min Rain = 0
KGGS 122010Z 05006KT 34/09 A2994 RMK A01 T03420087  RH  022%=      5-min Rain = 0
KGGS 122015Z 33001KT 34/09 A2993 RMK A01 T03370085  RH  022%=      5-min Rain = 0
KGGS 122020Z 24002KT 34/09 A2993 RMK A01 T03400087  RH  022%=      5-min Rain = 0
KGGS 122025Z 29003G9KT 35/09 A2993 RMK A01 T03530089  RH  021%=      5-min Rain = 0
KGGS 122030Z 31006G13KT 35/09 A2992 RMK A01 T03510086  RH  020%=      5-min Rain = 0
KGGS 122035Z 32008G13KT 35/09 A2992 RMK A01 T03500086  RH  020%=      5-min Rain = 0
KGGS 122040Z 35007KT 35/09 A2992 RMK A01 T03510086  RH  020%=      5-min Rain = 0
KGGS 122045Z 36006G11KT 35/08 A2991 RMK A01 T03480084  RH  020%=      5-min Rain = 0
KGGS 122050Z 04005G11KT 35/08 A2991 RMK A01 T03470084  RH  020%=      5-min Rain = 0
KGGS 122055Z 32004KT 35/09 A2991 RMK A01 T03470085  RH  021%=      5-min Rain = 0
KGGS 122100Z 31006KT 35/08 A299 RMK A01 T03500084  RH  020%=      5-min Rain = 0
KGGS 122105Z 30005KT 35/09 A299 RMK A01 T03460085  RH  021%=      5-min Rain = 0
KGGS 122110Z 06002KT 35/08 A299 RMK A01 T03450084  RH  021%=      5-min Rain = 0
KGGS 122115Z 03007G12KT 35/08 A299 RMK A01 T03490084  RH  020%=      5-min Rain = 0
KGGS 122120Z 00005KT 35/08 A299 RMK A01 T03490083  RH  020%=      5-min Rain = 0
KGGS 122125Z 26002KT 35/08 A299 RMK A01 T03500083  RH  020%=      5-min Rain = 0
KGGS 122130Z 29004G11KT 35/08 A2989 RMK A01 T03480082  RH  020%=      5-min Rain = 0
KGGS 122135Z 33006G13KT 35/08 A2989 RMK A01 T03500083  RH  020%=      5-min Rain = 0
KGGS 122140Z 32008KT 35/09 A2989 RMK A01 T03520085  RH  020%=      5-min Rain = 0
KGGS 122145Z 34006KT 35/08 A2989 RMK A01 T03540083  RH  020%=      5-min Rain = 0
KGGS 122150Z 34005KT 35/08 A2989 RMK A01 T03460081  RH  020%=      5-min Rain = 0
KGGS 122155Z 35001KT 35/08 A2988 RMK A01 T03480082  RH  020%=      5-min Rain = 0
KGGS 122200Z 07003KT 35/08 A2988 RMK A01 T03490082  RH  020%=      5-min Rain = 0
KGGS 122205Z 33006G12KT 35/08 A2988 RMK A01 T03490083  RH  020%=      5-min Rain = 0
KGGS 122210Z 34004KT 35/08 A2988 RMK A01 T03520083  RH  020%=      5-min Rain = 0
KGGS 122215Z 34003KT 35/08 A2988 RMK A01 T03530082  RH  020%=      5-min Rain = 0
KGGS 122220Z 31004KT 35/08 A2988 RMK A01 T03530083  RH  020%=      5-min Rain = 0
KGGS 122225Z 34004KT 35/08 A2988 RMK A01 T03480082  RH  020%=      5-min Rain = 0
KGGS 122230Z 35006G12KT 35/08 A2988 RMK A01 T03480078  RH  020%=      5-min Rain = 0
KGGS 122235Z 01006KT 35/08 A2988 RMK A01 T03490076  RH  019%=      5-min Rain = 0
KGGS 122240Z 35004KT 35/08 A2987 RMK A01 T03510078  RH  019%=      5-min Rain = 0
KGGS 122245Z 35002KT 35/08 A2987 RMK A01 T03510076  RH  019%=      5-min Rain = 0
KGGS 122250Z 35004G9KT 35/08 A2987 RMK A01 T03510077  RH  019%=      5-min Rain = 0
KGGS 122255Z 35005KT 35/08 A2987 RMK A01 T03530078  RH  019%=      5-min Rain = 0
KGGS 122300Z 00007KT 35/08 A2987 RMK A01 T03490077  RH  019%=      5-min Rain = 0
KGGS 122305Z 01005KT 35/08 A2987 RMK A01 T03500078  RH  019%=      5-min Rain = 0
KGGS 122310Z 02006G12KT 35/08 A2987 RMK A01 T03500077  RH  019%=      5-min Rain = 0
KGGS 122315Z 02008KT 35/08 A2987 RMK A01 T03490077  RH  019%=      5-min Rain = 0
KGGS 122320Z 03007KT 35/08 A2987 RMK A01 T03480078  RH  020%=      5-min Rain = 0
KGGS 122325Z 03006KT 35/08 A2987 RMK A01 T03460076  RH  019%=      5-min Rain = 0
KGGS 122330Z 03006KT 35/08 A2987 RMK A01 T03450075  RH  020%=      5-min Rain = 0
KGGS 122335Z 06007G14KT 35/08 A2987 RMK A01 T03450076  RH  020%=      5-min Rain = 0
KGGS 122340Z 36008KT 34/08 A2987 RMK A01 T03440076  RH  020%=      5-min Rain = 0
KGGS 122345Z 31004KT 34/08 A2987 RMK A01 T03420077  RH  020%=      5-min Rain = 0
KGGS 122350Z 35004KT 34/08 A2987 RMK A01 T03430078  RH  020%=      5-min Rain = 0
KGGS 122355Z 35007KT 34/07 A2986 RMK A01 T03410074  RH  020%=      5-min Rain = 0
KGGS 130000Z 35006KT 34/07 A2986 RMK A01 T03380074  RH  020%=      5-min Rain = 0
KGGS 130005Z 00005KT 34/08 A2986 RMK A01 T03370076  RH  020%=      5-min Rain = 0
KGGS 130010Z 00005KT 33/08 A2986 RMK A01 T03340075  RH  021%=      5-min Rain = 0
KGGS 130015Z 01005KT 33/08 A2986 RMK A01 T03310076  RH  021%=      5-min Rain = 0
KGGS 130020Z 01004KT 33/08 A2986 RMK A01 T03290078  RH  022%=      5-min Rain = 0
KGGS 130025Z 00004KT 32/08 A2986 RMK A01 T03240080  RH  023%=      5-min Rain = 0
KGGS 130030Z 00005KT 32/08 A2986 RMK A01 T03200079  RH  023%=      5-min Rain = 0
KGGS 130035Z 01004KT 32/08 A2986 RMK A01 T03160080  RH  024%=      5-min Rain = 0
KGGS 130040Z 03004KT 31/09 A2986 RMK A01 T03110085  RH  025%=      5-min Rain = 0
KGGS 130045Z 03004KT 31/09 A2986 RMK A01 T03060086  RH  026%=      5-min Rain = 0
KGGS 130050Z 04004KT 30/09 A2986 RMK A01 T03000089  RH  028%=      5-min Rain = 0
KGGS 130055Z 05005KT 29/09 A2985 RMK A01 T02940090  RH  029%=      5-min Rain = 0
KGGS 130100Z 06005KT 29/09 A2985 RMK A01 T02910090  RH  029%=      5-min Rain = 0
KGGS 130105Z 07005KT 29/09 A2986 RMK A01 T02900090  RH  030%=      5-min Rain = 0
KGGS 130110Z 08006KT 29/09 A2986 RMK A01 T02870090  RH  030%=      5-min Rain = 0
KGGS 130115Z 10006KT 28/09 A2986 RMK A01 T02840090  RH  031%=      5-min Rain = 0
KGGS 130120Z 10006KT 29/09 A2986 RMK A01 T02860090  RH  030%=      5-min Rain = 0
KGGS 130125Z 12006KT 29/09 A2986 RMK A01 T02880090  RH  030%=      5-min Rain = 0
KGGS 130130Z 14006KT 29/09 A2986 RMK A01 T02860092  RH  031%=      5-min Rain = 0
KGGS 130135Z 13006KT 28/10 A2987 RMK A01 T02770095  RH  033%=      5-min Rain = 0
KGGS 130140Z 11007KT 27/10 A2987 RMK A01 T02740096  RH  034%=      5-min Rain = 0
KGGS 130145Z 11006KT 28/10 A2987 RMK A01 T02750097  RH  034%=      5-min Rain = 0
KGGS 130150Z 12006KT 27/10 A2987 RMK A01 T02720098  RH  035%=      5-min Rain = 0
KGGS 130155Z 11007KT 27/10 A2987 RMK A01 T02720098  RH  035%=      5-min Rain = 0
KGGS 130200Z 11007KT 27/10 A2988 RMK A01 T02740098  RH  034%=      5-min Rain = 0
KGGS 130205Z 12008KT 28/10 A2988 RMK A01 T02750099  RH  034%=      5-min Rain = 0
KGGS 130210Z 12007KT 27/10 A2988 RMK A01 T02730099  RH  035%=      5-min Rain = 0
KGGS 130215Z 12007KT 27/10 A2988 RMK A01 T02720099  RH  035%=      5-min Rain = 0
KGGS 130220Z 12006KT 27/10 A2988 RMK A01 T02700099  RH  035%=      5-min Rain = 0
KGGS 130225Z 13006KT 27/10 A2988 RMK A01 T02670100  RH  036%=      5-min Rain = 0
KGGS 130230Z 13005KT 26/10 A2989 RMK A01 T02610100  RH  038%=      5-min Rain = 0
KGGS 130235Z 12005KT 26/10 A2989 RMK A01 T02560101  RH  039%=      5-min Rain = 0
KGGS 130240Z 12005KT 25/10 A2989 RMK A01 T02530101  RH  040%=      5-min Rain = 0
KGGS 130245Z 11005KT 25/10 A2989 RMK A01 T02520102  RH  040%=      5-min Rain = 0
KGGS 130250Z 12005KT 25/10 A2989 RMK A01 T02510102  RH  040%=      5-min Rain = 0
KGGS 130255Z 11005KT 25/10 A2989 RMK A01 T02520102  RH  040%=      5-min Rain = 0
KGGS 130300Z 12005KT 25/10 A2989 RMK A01 T02500102  RH  041%=      5-min Rain = 0
KGGS 130305Z 12005KT 25/10 A2989 RMK A01 T02480102  RH  041%=      5-min Rain = 0
KGGS 130310Z 11005KT 25/10 A2989 RMK A01 T02470102  RH  041%=      5-min Rain = 0
KGGS 130315Z 11005KT 25/10 A2989 RMK A01 T02450102  RH  042%=      5-min Rain = 0
KGGS 130320Z 11006KT 25/10 A299 RMK A01 T02450102  RH  042%=      5-min Rain = 0
KGGS 130325Z 11006KT 25/10 A299 RMK A01 T02460101  RH  041%=      5-min Rain = 0
KGGS 130330Z 11005KT 25/10 A299 RMK A01 T02470101  RH  041%=      5-min Rain = 0
KGGS 130335Z 09004KT 25/10 A299 RMK A01 T02460101  RH  041%=      5-min Rain = 0
KGGS 130340Z 09006KT 24/10 A299 RMK A01 T02430102  RH  042%=      5-min Rain = 0
KGGS 130345Z 10005KT 24/10 A299 RMK A01 T02410102  RH  043%=      5-min Rain = 0
KGGS 130350Z 10005KT 24/10 A299 RMK A01 T02390102  RH  043%=      5-min Rain = 0
KGGS 130355Z 10005KT 24/10 A299 RMK A01 T02390101  RH  043%=      5-min Rain = 0
KGGS 130400Z 11004KT 24/10 A2991 RMK A01 T02380101  RH  043%=      5-min Rain = 0
KGGS 130405Z 10004KT 24/10 A2991 RMK A01 T02370101  RH  043%=      5-min Rain = 0
KGGS 130410Z 10004KT 24/10 A2991 RMK A01 T02350100  RH  044%=      5-min Rain = 0
KGGS 130415Z 10005KT 23/10 A2991 RMK A01 T02330100  RH  044%=      5-min Rain = 0
KGGS 130420Z 10005KT 23/10 A2991 RMK A01 T02310099  RH  045%=      5-min Rain = 0
KGGS 130425Z 10005KT 23/10 A2991 RMK A01 T02320098  RH  044%=      5-min Rain = 0
KGGS 130430Z 10004KT 23/10 A2991 RMK A01 T02330097  RH  043%=      5-min Rain = 0
KGGS 130435Z 10003KT 23/10 A2991 RMK A01 T02320097  RH  044%=      5-min Rain = 0
KGGS 130440Z 09003KT 23/10 A2991 RMK A01 T02280097  RH  045%=      5-min Rain = 0
KGGS 130445Z 07002KT 22/10 A2991 RMK A01 T02240097  RH  046%=      5-min Rain = 0
KGGS 130450Z 04001KT 22/10 A2991 RMK A01 T02150097  RH  049%=      5-min Rain = 0
KGGS 130455Z 07002KT 21/10 A2991 RMK A01 T02120097  RH  049%=      5-min Rain = 0

Page generated in 0.037 seconds.